createdAt,value
2018-09-13T00:02:23.896Z,98803.94
2018-09-13T00:04:53.337Z,98801.20
2018-09-13T00:07:22.659Z,98801.70
2018-09-13T00:09:51.893Z,98803.03
2018-09-13T00:12:21.180Z,98795.83
2018-09-13T00:14:50.502Z,98802.73
2018-09-13T00:17:19.801Z,98798.84
2018-09-13T00:19:49.210Z,98801.84
2018-09-13T00:22:18.422Z,98797.00
2018-09-13T00:24:47.770Z,98789.52
2018-09-13T00:27:17.108Z,98791.52
2018-09-13T00:29:46.298Z,98796.09
2018-09-13T00:32:15.606Z,98792.22
2018-09-13T00:34:45.109Z,98791.22
2018-09-13T00:37:14.409Z,98790.71
2018-09-13T00:39:43.914Z,98787.28
2018-09-13T00:42:13.119Z,98791.94
2018-09-13T00:44:42.443Z,98784.02
2018-09-13T00:47:13.030Z,98782.08
2018-09-13T00:49:43.302Z,98785.02
2018-09-13T00:52:12.522Z,98777.70
2018-09-13T00:54:41.971Z,98777.70
2018-09-13T00:57:11.468Z,98780.05
2018-09-13T00:59:40.665Z,98793.67
2018-09-13T01:02:10.172Z,98789.58
2018-09-13T01:04:39.580Z,98793.98
2018-09-13T01:07:09.038Z,98792.74
2018-09-13T01:09:38.479Z,98789.15
2018-09-13T01:12:07.818Z,98784.71
2018-09-13T01:14:37.084Z,98792.52
2018-09-13T01:17:06.583Z,98794.33
2018-09-13T01:19:36.088Z,98789.01
2018-09-13T01:22:05.315Z,98792.20
2018-09-13T01:24:34.685Z,98792.27
2018-09-13T01:27:04.043Z,98789.03
2018-09-13T01:29:33.534Z,98789.80
2018-09-13T01:32:02.996Z,98786.06
2018-09-13T01:34:32.293Z,98791.36
2018-09-13T01:37:01.696Z,98786.44
2018-09-13T01:39:31.199Z,98782.11
2018-09-13T01:42:00.706Z,98780.01
2018-09-13T01:44:29.967Z,98777.27
2018-09-13T01:46:59.213Z,98778.39
2018-09-13T01:49:28.528Z,98773.59
2018-09-13T01:51:58.006Z,98776.38
2018-09-13T01:54:27.409Z,98774.04
2018-09-13T01:56:56.810Z,98774.27
2018-09-13T01:59:26.336Z,98773.06
2018-09-13T02:01:55.919Z,98763.36
2018-09-13T02:04:25.242Z,98767.24
2018-09-13T02:06:54.633Z,98767.64
2018-09-13T02:09:23.924Z,98766.19
2018-09-13T02:11:53.535Z,98758.44
2018-09-13T02:14:23.250Z,98763.55
2018-09-13T02:16:52.948Z,98765.89
2018-09-13T02:19:22.351Z,98768.66
2018-09-13T02:21:51.854Z,98772.40
2018-09-13T02:24:21.256Z,98754.81
2018-09-13T02:26:50.657Z,98755.34
2018-09-13T02:29:20.060Z,98755.88
2018-09-13T02:31:49.462Z,98751.30
2018-09-13T02:34:18.763Z,98744.55
2018-09-13T02:36:48.162Z,98742.41
2018-09-13T02:39:17.567Z,98739.85
2018-09-13T02:41:47.006Z,98734.65
2018-09-13T02:44:16.370Z,98735.46
2018-09-13T02:46:46.078Z,98736.66
2018-09-13T02:49:15.343Z,98732.97
2018-09-13T02:51:44.781Z,98748.61
2018-09-13T02:54:14.111Z,98750.59
2018-09-13T02:56:43.649Z,98748.61
2018-09-13T02:59:13.090Z,98745.69
2018-09-13T03:01:42.593Z,98746.12
2018-09-13T03:04:12.057Z,98741.11
2018-09-13T03:06:41.599Z,98744.56
2018-09-13T03:09:12.690Z,98741.73
2018-09-13T03:11:43.452Z,98744.30
2018-09-13T03:14:12.812Z,98741.17
2018-09-13T03:16:42.308Z,98734.21
2018-09-13T03:19:11.535Z,98728.42
2018-09-13T03:21:40.882Z,98730.86
2018-09-13T03:24:10.282Z,98729.22
2018-09-13T03:26:39.795Z,98724.20
2018-09-13T03:29:09.294Z,98729.53
2018-09-13T03:31:38.618Z,98724.03
2018-09-13T03:34:08.121Z,98725.22
2018-09-13T03:36:37.515Z,98725.05
2018-09-13T03:39:09.691Z,98726.25
2018-09-13T03:41:38.963Z,98719.19
2018-09-13T03:44:08.321Z,98718.48
2018-09-13T03:46:38.076Z,98716.07
2018-09-13T03:49:07.477Z,98723.38
2018-09-13T03:51:37.084Z,98714.86
2018-09-13T03:54:06.593Z,98717.05
2018-09-13T03:56:35.990Z,98715.25
2018-09-13T03:59:05.247Z,98714.20
2018-09-13T04:01:34.691Z,98718.20
2018-09-13T04:04:03.994Z,98717.58
2018-09-13T04:06:33.398Z,98716.45
2018-09-13T04:09:02.827Z,98718.36
2018-09-13T04:11:32.195Z,98719.80
2018-09-13T04:14:02.104Z,98719.16
2018-09-13T04:16:31.512Z,98718.15
2018-09-13T04:19:00.915Z,98713.91
2018-09-13T04:21:30.524Z,98712.56
2018-09-13T04:23:59.922Z,98707.71
2018-09-13T04:26:29.370Z,98703.08
2018-09-13T04:28:58.548Z,98705.77
2018-09-13T04:31:28.132Z,98700.36
2018-09-13T04:33:57.336Z,98697.53
2018-09-13T04:36:26.798Z,98706.23
2018-09-13T04:38:56.036Z,98706.03
2018-09-13T04:41:25.431Z,98713.80
2018-09-13T04:43:54.674Z,98725.23
2018-09-13T04:46:23.898Z,98716.05
2018-09-13T04:48:53.107Z,98714.11
2018-09-13T04:51:22.423Z,98719.92
2018-09-13T04:53:51.607Z,98718.19
2018-09-13T04:56:20.884Z,98719.09
2018-09-13T04:58:50.083Z,98716.25
2018-09-13T05:01:19.416Z,98718.17
2018-09-13T05:03:48.815Z,98714.83
2018-09-13T05:06:18.533Z,98707.27
2018-09-13T05:08:47.760Z,98701.22
2018-09-13T05:11:17.130Z,98693.86
2018-09-13T05:13:46.447Z,98683.37
2018-09-13T05:16:15.645Z,98696.94
2018-09-13T05:18:44.924Z,98688.41
2018-09-13T05:21:14.127Z,98687.11
2018-09-13T05:23:43.523Z,98691.52
2018-09-13T05:26:12.925Z,98680.80
2018-09-13T05:28:42.183Z,98681.00
2018-09-13T05:31:11.627Z,98679.56
2018-09-13T05:33:40.810Z,98684.56
2018-09-13T05:36:10.226Z,98679.88
2018-09-13T05:38:39.455Z,98682.41
2018-09-13T05:41:08.825Z,98678.34
2018-09-13T05:43:38.142Z,98685.19
2018-09-13T05:46:07.370Z,98681.83
2018-09-13T05:48:37.031Z,98680.80
2018-09-13T05:51:06.281Z,98678.68
2018-09-13T05:53:35.733Z,98681.74
2018-09-13T05:56:04.969Z,98684.17
2018-09-13T05:58:34.434Z,98687.44
2018-09-13T06:01:03.840Z,98690.52
2018-09-13T06:03:33.240Z,98680.16
2018-09-13T06:06:02.482Z,98677.42
2018-09-13T06:08:31.837Z,98677.42
2018-09-13T06:11:01.054Z,98679.45
2018-09-13T06:13:30.393Z,98687.84
2018-09-13T06:15:59.840Z,98694.66
2018-09-13T06:18:29.244Z,98704.56
2018-09-13T06:20:58.621Z,98705.34
2018-09-13T06:23:28.146Z,98703.19
2018-09-13T06:25:57.546Z,98695.95
2018-09-13T06:28:26.950Z,98696.38
2018-09-13T06:30:56.197Z,98703.59
2018-09-13T06:33:25.551Z,98713.33
2018-09-13T06:35:55.158Z,98712.42
2018-09-13T06:38:24.669Z,98711.91
2018-09-13T06:40:54.166Z,98714.44
2018-09-13T06:43:23.567Z,98696.72
2018-09-13T06:45:52.830Z,98686.53
2018-09-13T06:48:22.240Z,98687.02
2018-09-13T06:50:51.572Z,98674.57
2018-09-13T06:53:20.831Z,98676.75
2018-09-13T06:55:50.029Z,98676.55
2018-09-13T06:58:19.255Z,98673.42
2018-09-13T07:00:48.542Z,98679.11
2018-09-13T07:03:17.757Z,98690.21
2018-09-13T07:05:47.366Z,98686.39
2018-09-13T07:08:16.702Z,98684.42
2018-09-13T07:10:46.068Z,98698.47
2018-09-13T07:13:15.437Z,98704.67
2018-09-13T07:15:44.876Z,98704.81
2018-09-13T07:18:14.169Z,98705.95
2018-09-13T07:20:43.468Z,98705.20
2018-09-13T07:23:12.815Z,98703.95
2018-09-13T07:25:42.068Z,98702.15
2018-09-13T07:28:11.657Z,98687.27
2018-09-13T07:30:41.078Z,98677.22
2018-09-13T07:33:10.582Z,98678.52
2018-09-13T07:35:39.994Z,98688.41
2018-09-13T07:38:09.489Z,98692.84
2018-09-13T07:40:38.705Z,98702.81
2018-09-13T07:43:08.031Z,98709.69
2018-09-13T07:45:37.256Z,98708.59
2018-09-13T07:48:06.540Z,98708.27
2018-09-13T07:50:36.090Z,98712.05
2018-09-13T07:53:05.338Z,98694.64
2018-09-13T07:55:34.939Z,98695.97
2018-09-13T07:58:04.256Z,98691.88
2018-09-13T08:00:33.696Z,98689.31
2018-09-13T08:03:03.303Z,98698.09
2018-09-13T08:05:32.718Z,98696.44
2018-09-13T08:08:02.106Z,98699.05
2018-09-13T08:10:31.315Z,98708.04
2018-09-13T08:13:01.015Z,98714.19
2018-09-13T08:15:30.372Z,98715.47
2018-09-13T08:17:59.719Z,98715.19
2018-09-13T08:20:28.973Z,98717.52
2018-09-13T08:22:58.520Z,98722.56
2018-09-13T08:25:27.835Z,98719.28
2018-09-13T08:27:57.326Z,98719.72
2018-09-13T08:30:26.658Z,98712.19
2018-09-13T08:32:56.096Z,98709.62
2018-09-13T08:35:25.819Z,98709.68
2018-09-13T08:37:55.350Z,98711.58
2018-09-13T08:40:24.890Z,98709.88
2018-09-13T08:42:54.406Z,98714.27
2018-09-13T08:45:23.666Z,98725.17
2018-09-13T08:47:53.361Z,98737.34
2018-09-13T08:50:22.752Z,98745.80
2018-09-13T08:52:52.166Z,98751.56
2018-09-13T08:55:21.390Z,98752.01
2018-09-13T08:57:50.622Z,98753.80
2018-09-13T09:00:19.834Z,98756.63
2018-09-13T09:02:49.122Z,98756.02
2018-09-13T09:05:18.564Z,98762.59
2018-09-13T09:07:47.938Z,98744.78
2018-09-13T09:10:17.130Z,98745.29
2018-09-13T09:12:46.443Z,98744.89
2018-09-13T09:15:15.661Z,98741.17
2018-09-13T09:17:45.054Z,98743.57
2018-09-13T09:20:14.356Z,98742.55
2018-09-13T09:22:43.756Z,98735.63
2018-09-13T09:25:12.994Z,98729.42
2018-09-13T09:27:42.458Z,98725.53
2018-09-13T09:30:11.648Z,98721.39
2018-09-13T09:32:41.057Z,98725.25
2018-09-13T09:35:10.322Z,98729.33
2018-09-13T09:37:39.542Z,98736.77
2018-09-13T09:40:09.155Z,98741.28
2018-09-13T09:42:38.512Z,98744.95
2018-09-13T09:45:07.753Z,98742.15
2018-09-13T09:47:37.271Z,98743.83
2018-09-13T09:50:07.404Z,98749.41
2018-09-13T09:52:36.787Z,98745.41
2018-09-13T09:55:06.197Z,98746.89
2018-09-13T09:57:35.692Z,98755.89
2018-09-13T10:00:05.095Z,98758.22
2018-09-13T10:02:34.294Z,98758.61
2018-09-13T10:05:03.530Z,98763.20
2018-09-13T10:07:33.094Z,98756.19
2018-09-13T10:10:02.549Z,98756.34
2018-09-13T10:12:31.956Z,98754.66
2018-09-13T10:15:06.734Z,98751.17
2018-09-13T10:17:41.227Z,98744.67
2018-09-13T10:20:15.874Z,98744.81
2018-09-13T10:22:50.435Z,98741.77
2018-09-13T10:25:24.854Z,98742.31
2018-09-13T10:27:59.644Z,98738.38
2018-09-13T10:30:34.216Z,98734.66
2018-09-13T10:33:08.810Z,98731.04
2018-09-13T10:35:43.179Z,98729.02
2018-09-13T10:38:18.039Z,98728.13
2018-09-13T10:40:52.632Z,98726.42
2018-09-13T10:43:27.493Z,98730.94
2018-09-13T10:46:02.014Z,98739.11
2018-09-13T10:48:32.751Z,98738.73
2018-09-13T10:51:07.079Z,98731.92
2018-09-13T10:53:41.022Z,98732.67
2018-09-13T10:56:10.340Z,98745.05
2018-09-13T10:58:39.634Z,98739.72
2018-09-13T11:01:08.880Z,98737.13
2018-09-13T11:03:38.327Z,98732.44
2018-09-13T11:06:07.780Z,98722.31
2018-09-13T11:08:37.180Z,98736.06
2018-09-13T11:11:06.674Z,98728.09
2018-09-13T11:13:41.206Z,98731.03
2018-09-13T11:16:10.916Z,98731.99
2018-09-13T11:18:40.162Z,98737.53
2018-09-13T11:21:09.515Z,98735.69
2018-09-13T11:23:39.020Z,98736.84
2018-09-13T11:26:08.291Z,98738.59
2018-09-13T11:28:37.926Z,98745.70
2018-09-13T11:31:07.129Z,98741.77
2018-09-13T11:33:36.466Z,98738.17
2018-09-13T11:36:05.926Z,98739.48
2018-09-13T11:38:35.179Z,98747.27
2018-09-13T11:41:04.635Z,98748.58
2018-09-13T11:43:33.762Z,98754.45
2018-09-13T11:46:03.228Z,98745.28
2018-09-13T11:48:32.529Z,98744.53
2018-09-13T11:51:01.831Z,98749.16
2018-09-13T11:53:31.229Z,98744.46
2018-09-13T11:56:00.529Z,98745.05
2018-09-13T11:58:29.777Z,98746.02
2018-09-13T12:00:59.185Z,98748.14
2018-09-13T12:03:28.478Z,98739.12
2018-09-13T12:05:58.035Z,98744.22
2018-09-13T12:08:27.738Z,98743.57
2018-09-13T12:10:57.071Z,98748.53
2018-09-13T12:13:26.307Z,98739.45
2018-09-13T12:15:55.845Z,98741.77
2018-09-13T12:18:25.582Z,98738.46
2018-09-13T12:20:54.854Z,98733.26
2018-09-13T12:23:24.462Z,98731.55
2018-09-13T12:25:53.983Z,98735.83
2018-09-13T12:28:23.553Z,98733.70
2018-09-13T12:30:52.786Z,98725.57
2018-09-13T12:33:22.164Z,98724.62
2018-09-13T12:35:51.464Z,98727.08
2018-09-13T12:38:20.975Z,98731.77
2018-09-13T12:40:50.375Z,98728.80
2018-09-13T12:43:19.779Z,98728.66
2018-09-13T12:45:49.079Z,98732.50
2018-09-13T12:48:18.582Z,98733.13
2018-09-13T12:50:47.987Z,98729.88
2018-09-13T12:53:17.418Z,98735.20
2018-09-13T12:55:51.915Z,98725.43
2018-09-13T12:58:21.182Z,98722.61
2018-09-13T13:00:50.730Z,98722.73
2018-09-13T13:03:20.325Z,98720.81
2018-09-13T13:05:50.232Z,98718.48
2018-09-13T13:08:19.840Z,98716.97
2018-09-13T13:10:49.345Z,98718.95
2018-09-13T13:13:18.849Z,98711.72
2018-09-13T13:15:48.353Z,98716.47
2018-09-13T13:18:17.831Z,98716.47
2018-09-13T13:20:47.109Z,98721.37
2018-09-13T13:23:16.665Z,98721.19
2018-09-13T13:25:46.067Z,98722.67
2018-09-13T13:28:15.331Z,98722.63
2018-09-13T13:30:44.867Z,98724.09
2018-09-13T13:33:14.190Z,98724.12
2018-09-13T13:35:43.467Z,98726.86
2018-09-13T13:38:12.790Z,98726.81
2018-09-13T13:40:42.054Z,98715.05
2018-09-13T13:43:11.390Z,98711.37
2018-09-13T13:45:40.734Z,98708.25
2018-09-13T13:48:10.398Z,98702.02
2018-09-13T13:50:39.907Z,98699.56
2018-09-13T13:53:09.494Z,98694.70
2018-09-13T13:55:38.731Z,98695.52
2018-09-13T13:58:08.495Z,98690.73
2018-09-13T14:00:37.816Z,98687.77
2018-09-13T14:03:07.502Z,98680.66
2018-09-13T14:05:37.009Z,98679.76
2018-09-13T14:08:06.529Z,98679.86
2018-09-13T14:10:35.831Z,98680.95
2018-09-13T14:13:05.120Z,98684.27
2018-09-13T14:15:34.581Z,98689.55
2018-09-13T14:18:03.918Z,98688.45
2018-09-13T14:20:33.691Z,98691.17
2018-09-13T14:23:03.462Z,98690.45
2018-09-13T14:25:33.044Z,98684.66
2018-09-13T14:28:02.654Z,98684.23
2018-09-13T14:30:31.974Z,98679.92
2018-09-13T14:33:01.237Z,98677.55
2018-09-13T14:35:30.763Z,98677.00
2018-09-13T14:38:00.360Z,98669.75
2018-09-13T14:40:30.071Z,98671.76
2018-09-13T14:43:00.557Z,98671.15
2018-09-13T14:45:30.204Z,98661.08
2018-09-13T14:48:00.224Z,98666.80
2018-09-13T14:50:29.572Z,98534.00
2018-09-13T14:52:59.024Z,98666.22
2018-09-13T14:55:28.596Z,98673.98
2018-09-13T14:57:58.254Z,98660.97
2018-09-13T15:00:27.626Z,98660.27
2018-09-13T15:02:57.145Z,98656.23
2018-09-13T15:05:26.544Z,98653.69
2018-09-13T15:07:56.075Z,98656.27
2018-09-13T15:10:25.366Z,98659.14
2018-09-13T15:12:54.658Z,98661.98
2018-09-13T15:15:25.178Z,98659.66
2018-09-13T15:17:54.682Z,98661.02
2018-09-13T15:20:24.187Z,98659.91
2018-09-13T15:22:53.560Z,98665.97
2018-09-13T15:25:22.888Z,98660.94
2018-09-13T15:27:52.196Z,98655.78
2018-09-13T15:30:21.525Z,98658.64
2018-09-13T15:32:51.116Z,98658.69
2018-09-13T15:35:20.778Z,98652.86
2018-09-13T15:37:50.418Z,98651.25
2018-09-13T15:40:19.915Z,98654.27
2018-09-13T15:42:49.425Z,98651.78
2018-09-13T15:45:19.027Z,98650.78
2018-09-13T15:47:48.383Z,98646.75
2018-09-13T15:50:17.683Z,98646.08
2018-09-13T15:52:47.018Z,98637.52
2018-09-13T15:55:16.530Z,98640.31
2018-09-13T15:57:45.888Z,98646.32
2018-09-13T16:00:15.340Z,98647.75
2018-09-13T16:02:44.840Z,98643.66
2018-09-13T16:05:14.207Z,98640.29
2018-09-13T16:07:43.543Z,98645.32
2018-09-13T16:10:13.352Z,98648.55
2018-09-13T16:12:42.892Z,98652.97
2018-09-13T16:15:12.191Z,98658.70
2018-09-13T16:17:41.687Z,98663.58
2018-09-13T16:20:11.268Z,98659.16
2018-09-13T16:22:41.797Z,98662.70
2018-09-13T16:25:11.302Z,98654.97
2018-09-13T16:27:40.807Z,98656.30
2018-09-13T16:30:10.119Z,98655.16
2018-09-13T16:32:40.631Z,98649.00
2018-09-13T16:35:10.096Z,98649.63
2018-09-13T16:37:44.967Z,98650.26
2018-09-13T16:40:19.692Z,98655.74
2018-09-13T16:42:54.720Z,98655.70
2018-09-13T16:45:28.740Z,98669.55
2018-09-13T16:47:59.426Z,98667.93
2018-09-13T16:50:28.911Z,98672.93
2018-09-13T16:52:58.341Z,98678.88
2018-09-13T16:55:27.880Z,98671.97
2018-09-13T16:57:57.398Z,98678.70
2018-09-13T17:00:27.331Z,98672.48
2018-09-13T17:02:56.781Z,98670.42
2018-09-13T17:05:26.059Z,98679.77
2018-09-13T17:07:55.606Z,98674.53
2018-09-13T17:10:25.011Z,98677.64
2018-09-13T17:12:54.454Z,98676.63
2018-09-13T17:15:24.222Z,98683.08
2018-09-13T17:17:54.118Z,98684.45
2018-09-13T17:20:23.884Z,98676.78
2018-09-13T17:22:53.330Z,98683.45
2018-09-13T17:25:22.853Z,98682.28
2018-09-13T17:27:52.370Z,98685.50
2018-09-13T17:30:21.863Z,98686.09
2018-09-13T17:32:51.271Z,98691.78
2018-09-13T17:35:21.415Z,98695.84
2018-09-13T17:37:50.706Z,98689.83
2018-09-13T17:40:20.159Z,98691.16
2018-09-13T17:42:49.727Z,98694.28
2018-09-13T17:45:19.299Z,98693.64
2018-09-13T17:47:48.802Z,98697.44
2018-09-13T17:50:18.241Z,98698.72
2018-09-13T17:52:47.813Z,98697.97
2018-09-13T17:55:18.034Z,98701.33
2018-09-13T17:57:47.639Z,98695.61
2018-09-13T18:00:17.172Z,98689.98
2018-09-13T18:02:46.745Z,98688.53
2018-09-13T18:05:16.257Z,98693.02
2018-09-13T18:07:45.810Z,98693.53
2018-09-13T18:10:15.572Z,98694.02
2018-09-13T18:12:45.921Z,98697.39
2018-09-13T18:15:15.453Z,98696.77
2018-09-13T18:17:45.509Z,98702.23
2018-09-13T18:20:15.262Z,98702.09
2018-09-13T18:22:44.832Z,98702.48
2018-09-13T18:25:14.553Z,98710.92
2018-09-13T18:27:44.529Z,98718.03
2018-09-13T18:30:14.356Z,98717.66
2018-09-13T18:32:43.857Z,98710.77
2018-09-13T18:35:13.426Z,98709.64
2018-09-13T18:37:42.843Z,98714.97
2018-09-13T18:40:12.446Z,98717.89
2018-09-13T18:42:41.923Z,98724.06
2018-09-13T18:45:11.397Z,98721.63
2018-09-13T18:47:41.226Z,98730.02
2018-09-13T18:50:10.740Z,98718.38
2018-09-13T18:52:40.584Z,98718.73
2018-09-13T18:55:10.659Z,98719.73
2018-09-13T18:57:40.130Z,98728.42
2018-09-13T19:00:10.130Z,98726.45
2018-09-13T19:02:39.568Z,98722.60
2018-09-13T19:05:09.207Z,98720.13
2018-09-13T19:07:38.540Z,98720.17
2018-09-13T19:10:08.126Z,98725.79
2018-09-13T19:12:37.619Z,98734.45
2018-09-13T19:15:07.259Z,98727.44
2018-09-13T19:17:36.823Z,98735.69
2018-09-13T19:20:06.994Z,98735.03
2018-09-13T19:22:36.586Z,98736.22
2018-09-13T19:25:06.650Z,98734.24
2018-09-13T19:27:36.566Z,98739.44
2018-09-13T19:30:06.607Z,98728.53
2018-09-13T19:32:36.314Z,98741.69
2018-09-13T19:35:06.276Z,98733.47
2018-09-13T19:37:36.279Z,98740.18
2018-09-13T19:40:06.726Z,98742.33
2018-09-13T19:42:36.698Z,98737.98
2018-09-13T19:45:07.102Z,98741.97
2018-09-13T19:47:36.745Z,98746.55
2018-09-13T19:50:06.810Z,98739.45
2018-09-13T19:52:36.288Z,98748.45
2018-09-13T19:55:06.471Z,98750.80
2018-09-13T19:57:35.886Z,98752.92
2018-09-13T20:00:05.893Z,98746.27
2018-09-13T20:02:35.455Z,98748.30
2018-09-13T20:05:05.113Z,98746.89
2018-09-13T20:07:34.495Z,98747.01
2018-09-13T20:10:04.069Z,98748.26
2018-09-13T20:12:33.529Z,98749.05
2018-09-13T20:15:03.077Z,98743.52
2018-09-13T20:17:32.401Z,98748.11
2018-09-13T20:20:01.984Z,98749.63
2018-09-13T20:22:31.281Z,98753.84
2018-09-13T20:25:00.518Z,98752.13
2018-09-13T20:27:29.787Z,98747.64
2018-09-13T20:29:59.201Z,98745.41
2018-09-13T20:32:28.481Z,98749.04
2018-09-13T20:34:57.985Z,98747.12
2018-09-13T20:37:27.495Z,98742.74
2018-09-13T20:39:56.892Z,98741.49
2018-09-13T20:42:26.259Z,98746.58
2018-09-13T20:44:55.587Z,98742.47
2018-09-13T20:47:24.995Z,98746.27
2018-09-13T20:49:54.238Z,98749.05
2018-09-13T20:52:23.799Z,98754.38
2018-09-13T20:54:53.155Z,98748.66
2018-09-13T20:57:22.541Z,98757.30
2018-09-13T20:59:51.749Z,98750.02
2018-09-13T21:02:21.303Z,98756.48
2018-09-13T21:04:50.575Z,98754.88
2018-09-13T21:07:19.871Z,98751.77
2018-09-13T21:09:49.199Z,98751.86
2018-09-13T21:12:18.708Z,98757.11
2018-09-13T21:14:48.211Z,98752.28
2018-09-13T21:17:17.434Z,98751.96
2018-09-13T21:19:47.013Z,98756.62
2018-09-13T21:22:16.267Z,98756.73
2018-09-13T21:24:45.573Z,98757.63
2018-09-13T21:27:15.222Z,98753.23
2018-09-13T21:29:44.545Z,98752.03
2018-09-13T21:32:13.751Z,98760.19
2018-09-13T21:34:43.050Z,98758.14
2018-09-13T21:37:12.318Z,98762.53
2018-09-13T21:39:41.788Z,98761.80
2018-09-13T21:42:11.274Z,98761.61
2018-09-13T21:44:40.788Z,98757.63
2018-09-13T21:47:10.449Z,98764.83
2018-09-13T21:49:39.941Z,98757.42
2018-09-13T21:52:09.223Z,98756.22
2018-09-13T21:54:38.493Z,98758.56
2018-09-13T21:57:07.942Z,98758.98
2018-09-13T21:59:37.337Z,98765.16
2018-09-13T22:02:07.489Z,98767.68
2018-09-13T22:04:36.694Z,98767.08
2018-09-13T22:07:05.970Z,98763.96
2018-09-13T22:09:35.466Z,98764.58
2018-09-13T22:12:05.361Z,98766.83
2018-09-13T22:14:34.664Z,98766.41
2018-09-13T22:17:04.075Z,98766.20
2018-09-13T22:19:33.342Z,98772.64
2018-09-13T22:22:02.661Z,98770.77
2018-09-13T22:24:31.939Z,98769.37
2018-09-13T22:27:01.380Z,98769.50
2018-09-13T22:29:30.987Z,98765.98
2018-09-13T22:32:00.492Z,98771.91
2018-09-13T22:34:30.099Z,98768.74
2018-09-13T22:36:59.399Z,98776.22
2018-09-13T22:39:28.659Z,98769.86
2018-09-13T22:41:57.906Z,98770.62
2018-09-13T22:44:27.198Z,98773.47
2018-09-13T22:46:56.550Z,98774.70
2018-09-13T22:49:25.749Z,98773.22
2018-09-13T22:51:55.034Z,98767.44
2018-09-13T22:54:24.272Z,98768.96
2018-09-13T22:56:53.638Z,98777.92
2018-09-13T22:59:22.881Z,98772.72
2018-09-13T23:01:52.368Z,98769.85
2018-09-13T23:04:21.715Z,98777.54
2018-09-13T23:06:50.996Z,98776.11
2018-09-13T23:09:20.330Z,98772.98
2018-09-13T23:11:49.595Z,98770.61
2018-09-13T23:14:18.926Z,98769.83
2018-09-13T23:16:49.581Z,98773.31
2018-09-13T23:19:17.500Z,98774.63
2018-09-13T23:21:46.795Z,98781.61
2018-09-13T23:24:16.397Z,98777.95
2018-09-13T23:26:45.674Z,98783.69
2018-09-13T23:29:14.898Z,98775.72
2018-09-13T23:31:44.234Z,98780.21
2018-09-13T23:34:13.513Z,98776.73
2018-09-13T23:36:42.824Z,98782.96
2018-09-13T23:39:12.274Z,98789.00
2018-09-13T23:41:42.108Z,98778.47
2018-09-13T23:44:11.612Z,98779.20
2018-09-13T23:46:40.916Z,98783.27
2018-09-13T23:49:10.415Z,98783.88
2018-09-13T23:51:39.703Z,98786.52
2018-09-13T23:54:08.960Z,98790.42
2018-09-13T23:56:38.239Z,98791.09
2018-09-13T23:59:07.548Z,98791.66
